createdAt,value
2023-02-21T00:00:19.076Z,58.52
2023-02-21T00:03:41.870Z,58.56
2023-02-21T00:07:04.582Z,57.86
2023-02-21T00:10:29.121Z,57.06
2023-02-21T00:13:54.985Z,55.70
2023-02-21T00:17:17.096Z,56.67
2023-02-21T00:20:42.158Z,55.90
2023-02-21T00:24:05.075Z,56.59
2023-02-21T00:27:27.097Z,56.04
2023-02-21T00:30:50.854Z,57.16
2023-02-21T00:34:12.917Z,57.85
2023-02-21T00:37:35.376Z,56.97
2023-02-21T00:40:57.524Z,59.37
2023-02-21T00:44:19.917Z,59.45
2023-02-21T00:47:41.814Z,61.14
2023-02-21T00:51:06.081Z,63.70
2023-02-21T00:54:27.752Z,64.29
2023-02-21T00:57:50.058Z,64.67
2023-02-21T01:01:12.240Z,64.99
2023-02-21T01:04:36.333Z,63.85
2023-02-21T01:07:58.668Z,63.57
2023-02-21T01:11:20.860Z,62.60
2023-02-21T01:14:44.659Z,61.88
2023-02-21T01:18:06.768Z,62.03
2023-02-21T01:21:35.380Z,60.51
2023-02-21T01:24:59.086Z,60.77
2023-02-21T01:28:20.808Z,61.31
2023-02-21T01:31:43.145Z,61.29
2023-02-21T01:35:05.311Z,61.22
2023-02-21T01:38:27.722Z,61.35
2023-02-21T01:41:49.322Z,61.20
2023-02-21T01:45:52.850Z,61.46
2023-02-21T01:49:17.139Z,61.40
2023-02-21T01:52:42.574Z,62.48
2023-02-21T01:56:07.389Z,62.86
2023-02-21T01:59:29.394Z,62.60
2023-02-21T02:03:09.200Z,62.25
2023-02-21T02:06:35.525Z,61.61
2023-02-21T02:09:57.750Z,62.20
2023-02-21T02:13:16.621Z,61.58
2023-02-21T02:16:57.219Z,62.35
2023-02-21T02:20:16.252Z,62.24
2023-02-21T02:23:38.091Z,62.92
2023-02-21T02:26:57.046Z,63.05
2023-02-21T02:30:28.447Z,62.96
2023-02-21T02:34:04.697Z,63.18
2023-02-21T02:37:46.705Z,63.11
2023-02-21T02:41:44.755Z,62.95
2023-02-21T02:44:56.965Z,62.88
2023-02-21T02:48:13.962Z,62.63
2023-02-21T02:51:18.652Z,63.47
2023-02-21T02:54:23.485Z,63.14
2023-02-21T02:57:29.474Z,63.23
2023-02-21T03:00:38.956Z,62.27
2023-02-21T03:03:57.334Z,61.37
2023-02-21T03:07:36.534Z,62.35
2023-02-21T03:11:13.581Z,62.81
2023-02-21T03:14:20.333Z,62.58
2023-02-21T03:17:27.331Z,61.78
2023-02-21T03:20:33.315Z,62.28
2023-02-21T03:23:39.280Z,62.57
2023-02-21T03:26:48.145Z,63.64
2023-02-21T03:29:56.278Z,62.93
2023-02-21T03:33:00.582Z,63.97
2023-02-21T03:36:06.741Z,63.42
2023-02-21T03:39:11.748Z,63.28
2023-02-21T03:42:14.920Z,63.42
2023-02-21T03:45:18.685Z,64.39
2023-02-21T03:48:31.712Z,63.78
2023-02-21T03:51:36.162Z,64.19
2023-02-21T03:54:42.562Z,64.06
2023-02-21T03:57:46.938Z,64.06
2023-02-21T04:00:51.885Z,64.51
2023-02-21T04:03:55.692Z,64.73
2023-02-21T04:06:59.580Z,64.22
2023-02-21T04:10:04.058Z,64.37
2023-02-21T04:13:13.974Z,64.62
2023-02-21T04:16:17.689Z,64.56
2023-02-21T04:19:21.558Z,64.64
2023-02-21T04:22:25.154Z,65.81
2023-02-21T04:25:28.304Z,65.92
2023-02-21T04:28:34.979Z,65.75
2023-02-21T04:31:39.114Z,66.08
2023-02-21T04:34:42.776Z,66.20
2023-02-21T04:37:46.567Z,66.63
2023-02-21T04:40:50.171Z,67.08
2023-02-21T04:43:54.070Z,67.93
2023-02-21T04:46:58.072Z,67.19
2023-02-21T04:50:01.239Z,67.78
2023-02-21T04:53:04.814Z,68.29
2023-02-21T04:56:09.168Z,68.90
2023-02-21T04:59:12.644Z,68.60
2023-02-21T05:02:16.372Z,68.70
2023-02-21T05:05:20.021Z,67.56
2023-02-21T05:08:27.402Z,69.25
2023-02-21T05:11:35.011Z,69.20
2023-02-21T05:14:39.787Z,69.95
2023-02-21T05:17:46.444Z,70.05
2023-02-21T05:20:50.408Z,69.77
2023-02-21T05:23:57.103Z,69.07
2023-02-21T05:27:01.404Z,69.02
2023-02-21T05:30:05.414Z,69.51
2023-02-21T05:33:12.030Z,68.93
2023-02-21T05:36:15.781Z,68.01
2023-02-21T05:39:18.934Z,68.70
2023-02-21T05:42:22.582Z,68.79
2023-02-21T05:45:25.778Z,69.82
2023-02-21T05:48:29.465Z,68.66
2023-02-21T05:51:42.147Z,68.50
2023-02-21T05:54:45.642Z,67.97
2023-02-21T05:57:48.775Z,68.93
2023-02-21T06:00:52.843Z,68.96
2023-02-21T06:03:56.644Z,67.72
2023-02-21T06:06:59.753Z,68.96
2023-02-21T06:10:04.792Z,70.37
2023-02-21T06:13:08.702Z,69.97
2023-02-21T06:16:12.211Z,69.02
2023-02-21T06:19:17.898Z,67.98
2023-02-21T06:22:21.490Z,68.56
2023-02-21T06:25:24.725Z,67.60
2023-02-21T06:28:31.811Z,67.66
2023-02-21T06:31:36.446Z,68.88
2023-02-21T06:34:40.173Z,67.71
2023-02-21T06:37:44.337Z,67.34
2023-02-21T06:40:47.891Z,66.52
2023-02-21T06:43:52.666Z,65.06
2023-02-21T06:46:57.154Z,65.33
2023-02-21T06:50:00.331Z,65.12
2023-02-21T06:53:03.769Z,64.88
2023-02-21T06:56:07.527Z,65.27
2023-02-21T06:59:10.997Z,65.37
2023-02-21T07:02:19.584Z,65.53
2023-02-21T07:05:23.135Z,65.70
2023-02-21T07:08:26.658Z,64.76
2023-02-21T07:11:33.540Z,64.57
2023-02-21T07:14:37.317Z,64.31
2023-02-21T07:17:42.014Z,64.23
2023-02-21T07:20:45.408Z,64.81
2023-02-21T07:23:49.603Z,63.93
2023-02-21T07:26:52.757Z,63.79
2023-02-21T07:29:56.344Z,63.89
2023-02-21T07:33:00.014Z,64.35
2023-02-21T07:36:03.714Z,64.69
2023-02-21T07:39:06.956Z,64.99
2023-02-21T07:42:13.394Z,64.30
2023-02-21T07:45:21.488Z,64.49
2023-02-21T07:48:25.015Z,64.94
2023-02-21T07:51:30.565Z,65.54
2023-02-21T07:54:34.252Z,64.60
2023-02-21T07:57:37.399Z,65.13
2023-02-21T08:00:41.737Z,64.89
2023-02-21T08:03:46.257Z,65.70
2023-02-21T08:06:50.014Z,64.51
2023-02-21T08:09:53.602Z,64.41
2023-02-21T08:12:56.783Z,63.88
2023-02-21T08:16:00.292Z,64.00
2023-02-21T08:19:05.651Z,63.34
2023-02-21T08:22:09.245Z,64.11
2023-02-21T08:25:14.049Z,63.18
2023-02-21T08:28:18.230Z,62.96
2023-02-21T08:31:21.900Z,63.20
2023-02-21T08:34:29.673Z,62.54
2023-02-21T08:37:36.464Z,62.44
2023-02-21T08:40:41.348Z,61.70
2023-02-21T08:43:46.678Z,61.53
2023-02-21T08:46:50.443Z,61.54
2023-02-21T08:49:53.785Z,60.77
2023-02-21T08:52:57.606Z,60.72
2023-02-21T08:56:01.011Z,59.94
2023-02-21T08:59:05.857Z,59.55
2023-02-21T09:02:20.774Z,59.52
2023-02-21T09:05:27.680Z,58.53
2023-02-21T09:08:33.642Z,58.48
2023-02-21T09:11:37.709Z,59.19
2023-02-21T09:14:42.819Z,58.23
2023-02-21T09:17:46.403Z,59.87
2023-02-21T09:20:52.269Z,59.05
2023-02-21T09:23:59.308Z,59.08
2023-02-21T09:27:03.400Z,59.63
2023-02-21T09:30:13.655Z,59.94
2023-02-21T09:33:17.803Z,59.43
2023-02-21T09:36:24.269Z,59.27
2023-02-21T09:39:27.589Z,59.46
2023-02-21T09:42:32.586Z,59.66
2023-02-21T09:45:37.545Z,60.78
2023-02-21T09:48:43.988Z,60.08
2023-02-21T09:51:49.328Z,60.54
2023-02-21T09:54:58.175Z,58.73
2023-02-21T09:58:01.782Z,58.58
2023-02-21T10:01:16.061Z,58.20
2023-02-21T10:04:57.892Z,59.20
2023-02-21T10:08:10.526Z,59.11
2023-02-21T10:11:28.739Z,58.54
2023-02-21T10:15:00.522Z,59.95
2023-02-21T10:18:28.902Z,60.18
2023-02-21T10:21:43.321Z,59.55
2023-02-21T10:24:49.389Z,60.39
2023-02-21T10:27:53.783Z,61.35
2023-02-21T10:31:03.378Z,61.20
2023-02-21T10:34:21.922Z,60.65
2023-02-21T10:37:51.123Z,59.01
2023-02-21T10:41:02.788Z,59.35
2023-02-21T10:44:22.607Z,58.30
2023-02-21T10:48:03.448Z,58.43
2023-02-21T10:51:10.924Z,58.98
2023-02-21T10:54:25.635Z,60.66
2023-02-21T10:57:32.136Z,59.49
2023-02-21T11:00:39.506Z,58.70
2023-02-21T11:03:50.655Z,58.07
2023-02-21T11:07:08.898Z,58.08
2023-02-21T11:10:31.405Z,57.04
2023-02-21T11:13:36.760Z,57.26
2023-02-21T11:16:41.403Z,57.00
2023-02-21T11:19:55.161Z,56.27
2023-02-21T11:22:58.865Z,56.59
2023-02-21T11:26:11.837Z,56.98
2023-02-21T11:29:22.071Z,57.67
2023-02-21T11:32:33.367Z,56.72
2023-02-21T11:35:52.006Z,57.15
2023-02-21T11:39:19.128Z,56.08
2023-02-21T11:42:31.289Z,56.44
2023-02-21T11:45:37.043Z,55.78
2023-02-21T11:48:58.963Z,57.72
2023-02-21T11:52:06.872Z,57.56
2023-02-21T11:55:19.792Z,57.45
2023-02-21T11:58:34.983Z,56.26
2023-02-21T12:02:18.134Z,56.73
2023-02-21T12:05:48.532Z,56.23
2023-02-21T12:09:17.134Z,56.67
2023-02-21T12:12:32.635Z,56.75
2023-02-21T12:15:57.933Z,55.08
2023-02-21T12:19:16.935Z,57.04
2023-02-21T12:23:05.539Z,58.63
2023-02-21T12:26:28.747Z,58.31
2023-02-21T12:29:35.074Z,57.39
2023-02-21T12:33:11.933Z,57.89
2023-02-21T12:36:46.000Z,59.61
2023-02-21T12:40:14.802Z,59.92
2023-02-21T12:43:50.129Z,60.39
2023-02-21T12:47:07.576Z,58.33
2023-02-21T12:50:18.674Z,58.47
2023-02-21T12:53:40.150Z,58.56
2023-02-21T12:56:53.914Z,57.76
2023-02-21T13:00:17.770Z,57.46
2023-02-21T13:03:50.113Z,58.02
2023-02-21T13:07:28.765Z,57.91
2023-02-21T13:10:56.007Z,57.82
2023-02-21T13:14:00.946Z,58.49
2023-02-21T13:17:04.222Z,58.39
2023-02-21T13:20:18.051Z,57.67
2023-02-21T13:23:59.306Z,57.65
2023-02-21T13:27:39.751Z,57.44
2023-02-21T13:30:48.302Z,58.18
2023-02-21T13:33:55.830Z,58.28
2023-02-21T13:37:07.595Z,58.69
2023-02-21T13:40:35.285Z,59.29
2023-02-21T13:43:52.966Z,59.23
2023-02-21T13:47:10.762Z,58.72
2023-02-21T13:50:39.582Z,58.73
2023-02-21T13:54:12.251Z,59.23
2023-02-21T13:57:33.957Z,58.71
2023-02-21T14:00:37.210Z,58.59
2023-02-21T14:03:41.839Z,59.26
2023-02-21T14:06:56.344Z,59.13
2023-02-21T14:10:00.213Z,58.50
2023-02-21T14:13:21.425Z,59.22
2023-02-21T14:16:30.582Z,60.26
2023-02-21T14:19:39.634Z,60.91
2023-02-21T14:22:44.578Z,61.41
2023-02-21T14:26:01.969Z,62.17
2023-02-21T14:29:08.683Z,62.47
2023-02-21T14:32:11.964Z,62.28
2023-02-21T14:35:24.499Z,61.59
2023-02-21T14:38:33.083Z,61.55
2023-02-21T14:41:36.906Z,61.70
2023-02-21T14:44:51.071Z,62.00
2023-02-21T14:48:01.666Z,62.06
2023-02-21T14:51:51.486Z,62.54
2023-02-21T14:55:32.830Z,63.15
2023-02-21T14:58:49.461Z,63.44
2023-02-21T15:02:16.325Z,63.42
2023-02-21T15:05:42.760Z,63.42
2023-02-21T15:08:49.550Z,64.24
2023-02-21T15:11:52.984Z,63.48
2023-02-21T15:14:58.451Z,63.65
2023-02-21T15:18:04.786Z,63.85
2023-02-21T15:21:11.562Z,63.73
2023-02-21T15:24:17.697Z,64.07
2023-02-21T15:27:21.541Z,64.31
2023-02-21T15:30:35.396Z,64.73
2023-02-21T15:33:43.212Z,65.26
2023-02-21T15:37:06.519Z,65.09
2023-02-21T15:40:24.771Z,64.46
2023-02-21T15:43:52.252Z,65.47
2023-02-21T15:46:59.350Z,65.53
2023-02-21T15:50:08.707Z,66.40
2023-02-21T15:53:24.558Z,66.66
2023-02-21T15:56:28.785Z,66.92
2023-02-21T15:59:33.525Z,67.61
2023-02-21T16:02:37.159Z,67.19
2023-02-21T16:05:41.126Z,67.79
2023-02-21T16:08:59.221Z,68.27
2023-02-21T16:12:27.301Z,68.36
2023-02-21T16:15:37.083Z,69.04
2023-02-21T16:18:42.442Z,68.71
2023-02-21T16:21:45.687Z,69.15
2023-02-21T16:24:49.762Z,69.19
2023-02-21T16:28:02.480Z,68.64
2023-02-21T16:31:09.269Z,68.88
2023-02-21T16:34:13.781Z,69.06
2023-02-21T16:37:20.020Z,68.97
2023-02-21T16:40:33.974Z,68.65
2023-02-21T16:43:39.301Z,69.48
2023-02-21T16:46:44.458Z,69.72
2023-02-21T16:49:49.695Z,67.60
2023-02-21T16:52:54.696Z,67.64
2023-02-21T16:56:01.804Z,67.86
2023-02-21T16:59:11.037Z,67.29
2023-02-21T17:02:15.578Z,68.00
2023-02-21T17:05:24.403Z,67.23
2023-02-21T17:08:28.587Z,66.78
2023-02-21T17:11:33.070Z,66.77
2023-02-21T17:14:39.054Z,66.33
2023-02-21T17:17:44.470Z,66.45
2023-02-21T17:20:59.267Z,67.01
2023-02-21T17:24:03.989Z,67.18
2023-02-21T17:27:11.121Z,67.14
2023-02-21T17:30:17.501Z,66.54
2023-02-21T17:33:22.958Z,66.90
2023-02-21T17:36:28.829Z,66.92
2023-02-21T17:39:33.231Z,66.97
2023-02-21T17:42:42.198Z,66.39
2023-02-21T17:45:50.324Z,67.10
2023-02-21T17:48:55.294Z,66.86
2023-02-21T17:52:00.448Z,66.49
2023-02-21T17:55:08.281Z,66.71
2023-02-21T17:58:14.245Z,67.32
2023-02-21T18:01:20.236Z,66.85
2023-02-21T18:04:26.690Z,66.75
2023-02-21T18:07:33.361Z,66.79
2023-02-21T18:10:40.893Z,67.03
2023-02-21T18:13:45.553Z,66.76
2023-02-21T18:16:51.610Z,66.94
2023-02-21T18:19:56.886Z,66.89
2023-02-21T18:23:04.140Z,68.07
2023-02-21T18:26:10.472Z,68.16
2023-02-21T18:29:17.066Z,68.44
2023-02-21T18:32:25.383Z,68.87
2023-02-21T18:35:31.768Z,68.82
2023-02-21T18:38:40.912Z,69.26
2023-02-21T18:41:46.962Z,69.86
2023-02-21T18:44:53.044Z,68.82
2023-02-21T18:48:06.357Z,68.79
2023-02-21T18:51:16.639Z,69.08
2023-02-21T18:54:23.383Z,69.84
2023-02-21T18:57:27.748Z,70.08
2023-02-21T19:00:38.435Z,69.22
2023-02-21T19:03:48.191Z,69.52
2023-02-21T19:06:55.667Z,69.80
2023-02-21T19:10:06.185Z,70.37
2023-02-21T19:13:12.737Z,70.82
2023-02-21T19:16:20.477Z,71.67
2023-02-21T19:19:32.889Z,72.97
2023-02-21T19:22:39.312Z,72.75
2023-02-21T19:25:46.522Z,73.09
2023-02-21T19:28:52.651Z,73.63
2023-02-21T19:31:59.695Z,73.91
2023-02-21T19:35:07.952Z,74.38
2023-02-21T19:38:14.947Z,74.46
2023-02-21T19:41:21.614Z,75.29
2023-02-21T19:44:30.430Z,75.25
2023-02-21T19:47:35.571Z,76.30
2023-02-21T19:50:42.129Z,76.31
2023-02-21T19:53:47.133Z,76.93
2023-02-21T19:56:55.330Z,76.93
2023-02-21T20:00:05.418Z,77.74
2023-02-21T20:03:12.513Z,76.78
2023-02-21T20:06:19.922Z,76.79
2023-02-21T20:09:27.224Z,76.98
2023-02-21T20:12:33.760Z,77.75
2023-02-21T20:15:45.680Z,77.71
2023-02-21T20:18:52.593Z,77.42
2023-02-21T20:22:00.812Z,76.34
2023-02-21T20:25:07.613Z,77.25
2023-02-21T20:28:12.560Z,76.80
2023-02-21T20:31:21.523Z,77.35
2023-02-21T20:34:30.049Z,78.64
2023-02-21T20:37:36.730Z,78.67
2023-02-21T20:40:43.523Z,79.13
2023-02-21T20:43:50.260Z,77.54
2023-02-21T20:46:57.863Z,77.49
2023-02-21T20:50:08.085Z,76.74
2023-02-21T20:53:18.638Z,76.84
2023-02-21T20:56:32.320Z,77.01
2023-02-21T20:59:42.933Z,77.40
2023-02-21T21:02:50.403Z,75.94
2023-02-21T21:05:57.003Z,75.73
2023-02-21T21:09:04.617Z,75.50
2023-02-21T21:12:11.890Z,76.32
2023-02-21T21:15:20.997Z,76.70
2023-02-21T21:18:28.330Z,77.02
2023-02-21T21:21:34.531Z,77.31
2023-02-21T21:24:41.001Z,77.38
2023-02-21T21:27:47.334Z,77.87
2023-02-21T21:30:53.934Z,78.74
2023-02-21T21:34:00.434Z,79.27
2023-02-21T21:37:06.808Z,79.99
2023-02-21T21:40:18.641Z,79.84
2023-02-21T21:43:29.624Z,79.66
2023-02-21T21:46:36.442Z,80.04
2023-02-21T21:49:40.828Z,80.43
2023-02-21T21:52:50.603Z,79.95
2023-02-21T21:55:54.448Z,80.41
2023-02-21T21:58:58.908Z,80.52
2023-02-21T22:02:03.269Z,80.37
2023-02-21T22:05:07.225Z,80.25
2023-02-21T22:08:16.550Z,79.76
2023-02-21T22:11:22.537Z,79.03
2023-02-21T22:14:25.937Z,79.00
2023-02-21T22:17:29.648Z,78.89
2023-02-21T22:20:36.305Z,79.04
2023-02-21T22:23:41.789Z,79.38
2023-02-21T22:26:45.030Z,79.28
2023-02-21T22:29:49.945Z,79.66
2023-02-21T22:32:53.339Z,79.62
2023-02-21T22:35:56.785Z,78.20
2023-02-21T22:39:08.401Z,78.16
2023-02-21T22:42:12.771Z,78.75
2023-02-21T22:45:17.204Z,79.13
2023-02-21T22:48:21.150Z,79.48
2023-02-21T22:51:28.388Z,79.79
2023-02-21T22:54:31.848Z,79.68
2023-02-21T22:57:35.707Z,79.24
2023-02-21T23:00:41.269Z,79.72
2023-02-21T23:03:44.174Z,80.20
2023-02-21T23:06:47.502Z,80.74
2023-02-21T23:09:50.532Z,81.93
2023-02-21T23:13:00.571Z,82.92
2023-02-21T23:16:04.034Z,84.12
2023-02-21T23:19:08.433Z,85.45
2023-02-21T23:22:12.017Z,86.43
2023-02-21T23:25:21.051Z,87.17
2023-02-21T23:28:26.663Z,87.97
2023-02-21T23:31:31.164Z,88.97
2023-02-21T23:34:40.934Z,90.14
2023-02-21T23:37:45.883Z,91.31
2023-02-21T23:40:56.333Z,91.83
2023-02-21T23:43:59.964Z,92.22
2023-02-21T23:47:06.118Z,92.41
2023-02-21T23:50:17.387Z,92.99
2023-02-21T23:53:22.904Z,93.59
2023-02-21T23:56:27.674Z,94.55
2023-02-21T23:59:32.195Z,95.17
